Elka Sirius — A8GQ7 — position and weather

sailwx.info

Track history (hours):
 
Tides and Currents Weather Stations Pressure Air Temp Water Temp Dewpoint Dewpoint Depression Visibility Wind Speed Wind Dir Waves Ship Positions

Elka Sirius

Last reported at 2018-Apr-06 03:01 UTC. Time now 2018-Apr-22 08:46 UTC.
Position N 28°02' W 016°20'.
Warning: this ship's position is 16 days out of date.

Length 189 m; draft 11.3 m.

Type: Tanker. MMSI: 636012627.

Date/timePositionNaut miles runAvg speedWind from/ knotsBaromVisibWave heightAir tempDewpointWater temp
2018-Apr-06 03:01N 28°02' W 016°20'413.0
2018-Apr-06 02:44N 28°05' W 016°18'313.1
2018-Apr-06 02:29N 28°07' W 016°15'712.9
2018-Apr-06 01:59N 28°12' W 016°10'612.9
2018-Apr-06 01:30N 28°17' W 016°06'612.2
2018-Apr-06 01:00N 28°23' W 016°04'712.7
2018-Apr-06 00:30N 28°26' W 015°57'713.2
2018-Apr-06 00:00N 28°30' W 015°52'613.0
2018-Apr-05 23:30N 28°35' W 015°47'612.7
2018-Apr-05 23:00N 28°41' W 015°43'712.7
2018-Apr-05 22:29N 28°47' W 015°40'612.5
2018-Apr-05 21:59N 28°52' W 015°37'712.3
2018-Apr-05 21:26N 28°59' W 015°34'512.3
2018-Apr-05 21:00N 29°04' W 015°32'612.1
2018-Apr-05 20:30N 29°09' W 015°29'612.5
2018-Apr-05 20:00N 29°15' W 015°27'712.5
2018-Apr-05 19:29N 29°21' W 015°25'612.6
2018-Apr-05 18:58N 29°27' W 015°22'612.6
2018-Apr-05 18:30N 29°33' W 015°20'612.6
2018-Apr-05 17:59N 29°39' W 015°18'812.6
2018-Apr-05 17:20N 29°47' W 015°16'412.5
2018-Apr-05 17:00N 29°51' W 015°14'812.6
2018-Apr-05 16:22N 29°59' W 015°12'512.7
2018-Apr-05 16:00N 30°03' W 015°10'2112.9
2018-Apr-05 14:24N 30°23' W 015°03'  
2018-Mar-31 22:00N 49°46' W 003°36'612.0
2018-Mar-31 21:30N 49°49' W 003°28'611.4
2018-Mar-31 21:00N 49°52' W 003°20'510.8
2018-Mar-31 20:30N 49°55' W 003°13'510.2
2018-Mar-31 20:00N 49°58' W 003°06'5 9.6
2018-Mar-31 19:30N 49°59' W 002°59'5 9.4
2018-Mar-31 18:59N 50°00' W 002°52'4 9.4
2018-Mar-31 18:30N 50°02' W 002°45'5 9.8
2018-Mar-31 17:58N 50°03' W 002°37'2311.6
2018-Mar-31 15:58N 50°09' W 002°02'6214.5
2018-Mar-31 11:39N 50°25' W 000°28'212.3
2018-Mar-31 11:30N 50°26' W 000°25'611.9
2018-Mar-31 11:01N 50°28' W 000°16'611.3
2018-Mar-31 10:31N 50°29' W 000°08'510.6
2018-Mar-31 10:01N 50°30' E 000°01'510.0
2018-Mar-31 09:30N 50°31' E 000°08'5 9.4
2018-Mar-31 09:00N 50°32' E 000°15'4 8.9
2018-Mar-31 08:30N 50°34' E 000°22'5 8.9
2018-Mar-31 08:00N 50°35' E 000°29'5 9.6
2018-Mar-31 07:31N 50°37' E 000°36'510.6
2018-Mar-31 07:00N 50°40' E 000°42'611.4
2018-Mar-31 06:31N 50°44' E 000°50'612.2
2018-Mar-31 06:00N 50°47' E 000°57'612.7
2018-Mar-31 05:30N 50°51' E 001°05'612.7
2018-Mar-31 05:01N 50°56' E 001°12'612.3
2018-Mar-31 04:31N 51°00' E 001°19'611.6
2018-Mar-31 04:00N 51°04' E 001°26'511.0
2018-Mar-31 03:30N 51°07' E 001°33'5 9.9
2018-Mar-31 03:01N 51°10' E 001°39'5 9.7
2018-Mar-31 02:31N 51°13' E 001°45'5 9.4
2018-Mar-31 02:00N 51°18' E 001°48'4 9.0
2018-Mar-31 01:30N 51°22' E 001°51'4 8.9
2018-Mar-31 01:00N 51°26' E 001°55'5 9.1
2018-Mar-31 00:30N 51°29' E 001°59'5 9.7
2018-Mar-31 00:00N 51°33' E 002°04'510.3
2018-Mar-30 23:30N 51°37' E 002°10'510.6
2018-Mar-30 23:00N 51°41' E 002°15'611.6
2018-Mar-30 22:28N 51°45' E 002°22'612.5
2018-Mar-30 22:00N 51°50' E 002°28'53510.4
2018-Mar-28 18:27N 60°41' E 004°20'511.9
2018-Mar-28 18:00N 60°46' E 004°26'611.0
2018-Mar-28 17:30N 60°50' E 004°33'611.8
2018-Mar-28 17:00N 60°51' E 004°45'611.1
2018-Mar-28 16:30N 60°51' E 004°56'4 8.6
2018-Mar-28 16:00N 60°49' E 005°04'0 0.4
2018-Mar-28 15:30N 60°49' E 005°04'0 0.4
2018-Mar-28 15:00N 60°49' E 005°04'0 0.3
2018-Mar-28 14:29N 60°49' E 005°05'0 0.1
2018-Mar-28 14:00N 60°49' E 005°05'1 1.9
2018-Mar-28 13:30N 60°49' E 005°03'0 0.8
2018-Mar-28 12:59N 60°49' E 005°02'0 0.0
2018-Mar-28 12:29N 60°49' E 005°02'0 0.0
2018-Mar-28 11:59N 60°49' E 005°02'0 0.0
2018-Mar-28 11:29N 60°49' E 005°02'0 0.0
2018-Mar-28 10:59N 60°49' E 005°02'0 0.0
2018-Mar-28 10:29N 60°49' E 005°02'0 0.0
2018-Mar-28 09:59N 60°49' E 005°02'0 0.0
2018-Mar-28 09:29N 60°49' E 005°02'0 0.0
2018-Mar-28 08:59N 60°49' E 005°02'0 0.0
2018-Mar-28 08:29N 60°49' E 005°02'0 0.0
2018-Mar-28 07:59N 60°49' E 005°02'0 0.0
2018-Mar-28 07:29N 60°49' E 005°02'0 0.0
2018-Mar-28 06:59N 60°49' E 005°02'0 0.0
2018-Mar-28 06:29N 60°49' E 005°02'0 0.0
2018-Mar-28 05:59N 60°49' E 005°02'0 0.0
2018-Mar-28 05:29N 60°49' E 005°02'0 0.0
2018-Mar-28 04:59N 60°49' E 005°02'0 0.0
2018-Mar-28 04:29N 60°49' E 005°02'0 0.0
2018-Mar-28 03:59N 60°49' E 005°02'0 0.0
2018-Mar-28 03:29N 60°49' E 005°02'0 0.0
2018-Mar-28 02:59N 60°49' E 005°02'0 0.0
2018-Mar-28 02:29N 60°49' E 005°02'0 0.0
2018-Mar-28 01:59N 60°49' E 005°02'0 0.0
2018-Mar-28 01:29N 60°49' E 005°02'0 0.0
2018-Mar-28 00:59N 60°49' E 005°02'0 0.0
2018-Mar-28 00:29N 60°49' E 005°02'0 0.0
2018-Mar-27 23:59N 60°49' E 005°02'0 0.0
2018-Mar-27 23:29N 60°49' E 005°02'0 0.0
2018-Mar-27 22:59N 60°49' E 005°02'0 0.0
2018-Mar-27 22:29N 60°49' E 005°02'0 0.0
2018-Mar-27 21:59N 60°49' E 005°02'0 0.0
2018-Mar-27 21:29N 60°49' E 005°02'0 0.0
2018-Mar-27 20:59N 60°49' E 005°02'0 0.0
2018-Mar-27 20:29N 60°49' E 005°02'0 0.0
2018-Mar-27 19:59N 60°49' E 005°02'0 0.0
2018-Mar-27 19:29N 60°49' E 005°02'0 0.0
2018-Mar-27 18:59N 60°49' E 005°02'0 0.0
2018-Mar-27 18:29N 60°49' E 005°02'0 0.0
2018-Mar-27 17:59N 60°49' E 005°02'0 0.0
2018-Mar-27 17:29N 60°49' E 005°02'0 0.0
2018-Mar-27 16:59N 60°49' E 005°02'0 0.0
2018-Mar-27 16:29N 60°49' E 005°02'0 0.0
2018-Mar-27 15:59N 60°49' E 005°02'0 0.0
2018-Mar-27 15:29N 60°49' E 005°02'0 0.0
2018-Mar-27 14:59N 60°49' E 005°02'0 0.0
2018-Mar-27 14:29N 60°49' E 005°02'0 0.0
2018-Mar-27 13:59N 60°49' E 005°02'0 0.0
2018-Mar-27 13:29N 60°49' E 005°02'0 0.0
2018-Mar-27 12:59N 60°49' E 005°02'0 0.0
2018-Mar-27 12:29N 60°49' E 005°02'0 0.0
2018-Mar-27 11:59N 60°49' E 005°02'0 0.0
2018-Mar-27 11:29N 60°49' E 005°02'0 0.0
2018-Mar-27 10:59N 60°49' E 005°02'0 0.0
2018-Mar-27 10:29N 60°49' E 005°02'0 0.0
2018-Mar-27 09:59N 60°49' E 005°02'0 0.0
2018-Mar-27 09:29N 60°49' E 005°02'0 0.0
2018-Mar-27 08:59N 60°49' E 005°02'0 0.0
2018-Mar-27 08:29N 60°49' E 005°02'0 0.0
2018-Mar-27 07:59N 60°49' E 005°02'0 0.0
2018-Mar-27 07:29N 60°49' E 005°02'0 0.0
2018-Mar-27 06:59N 60°49' E 005°02'0 0.0
2018-Mar-27 06:29N 60°49' E 005°02'0 0.0
2018-Mar-27 05:59N 60°49' E 005°02'0 0.0
2018-Mar-27 05:29N 60°49' E 005°02'0 0.0
2018-Mar-27 04:59N 60°49' E 005°02'0 0.0
2018-Mar-27 04:29N 60°49' E 005°02'0 0.0
2018-Mar-27 03:59N 60°49' E 005°02'0 0.0
2018-Mar-27 03:29N 60°49' E 005°02'  
Track history (hours):
 
Tides and Currents Weather Stations Pressure Air Temp Water Temp Dewpoint Dewpoint Depression Visibility Wind Speed Wind Dir Waves Ship Positions

Elka Sirius

Last reported at 2018-Apr-06 03:01 UTC. Time now 2018-Apr-22 08:46 UTC.
Position N 28°02' W 016°20'.
Warning: this ship's position is 16 days out of date.

Length 189 m; draft 11.3 m.

Type: Tanker. MMSI: 636012627.

Date/timePositionNaut miles runAvg speedWind from/ knotsBaromVisibWave heightAir tempDewpointWater temp
2018-Apr-06 03:01N 28°02' W 016°20'413.0
2018-Apr-06 02:44N 28°05' W 016°18'313.1
2018-Apr-06 02:29N 28°07' W 016°15'712.9
2018-Apr-06 01:59N 28°12' W 016°10'612.9
2018-Apr-06 01:30N 28°17' W 016°06'612.2
2018-Apr-06 01:00N 28°23' W 016°04'712.7
2018-Apr-06 00:30N 28°26' W 015°57'713.2
2018-Apr-06 00:00N 28°30' W 015°52'613.0
2018-Apr-05 23:30N 28°35' W 015°47'612.7
2018-Apr-05 23:00N 28°41' W 015°43'712.7
2018-Apr-05 22:29N 28°47' W 015°40'612.5
2018-Apr-05 21:59N 28°52' W 015°37'712.3
2018-Apr-05 21:26N 28°59' W 015°34'512.3
2018-Apr-05 21:00N 29°04' W 015°32'612.1
2018-Apr-05 20:30N 29°09' W 015°29'612.5
2018-Apr-05 20:00N 29°15' W 015°27'712.5
2018-Apr-05 19:29N 29°21' W 015°25'612.6
2018-Apr-05 18:58N 29°27' W 015°22'612.6
2018-Apr-05 18:30N 29°33' W 015°20'612.6
2018-Apr-05 17:59N 29°39' W 015°18'812.6
2018-Apr-05 17:20N 29°47' W 015°16'412.5
2018-Apr-05 17:00N 29°51' W 015°14'812.6
2018-Apr-05 16:22N 29°59' W 015°12'512.7
2018-Apr-05 16:00N 30°03' W 015°10'2112.9
2018-Apr-05 14:24N 30°23' W 015°03'  
2018-Mar-31 22:00N 49°46' W 003°36'612.0
2018-Mar-31 21:30N 49°49' W 003°28'611.4
2018-Mar-31 21:00N 49°52' W 003°20'510.8
2018-Mar-31 20:30N 49°55' W 003°13'510.2
2018-Mar-31 20:00N 49°58' W 003°06'5 9.6
2018-Mar-31 19:30N 49°59' W 002°59'5 9.4
2018-Mar-31 18:59N 50°00' W 002°52'4 9.4
2018-Mar-31 18:30N 50°02' W 002°45'5 9.8
2018-Mar-31 17:58N 50°03' W 002°37'2311.6
2018-Mar-31 15:58N 50°09' W 002°02'6214.5
2018-Mar-31 11:39N 50°25' W 000°28'212.3
2018-Mar-31 11:30N 50°26' W 000°25'611.9
2018-Mar-31 11:01N 50°28' W 000°16'611.3
2018-Mar-31 10:31N 50°29' W 000°08'510.6
2018-Mar-31 10:01N 50°30' E 000°01'510.0
2018-Mar-31 09:30N 50°31' E 000°08'5 9.4
2018-Mar-31 09:00N 50°32' E 000°15'4 8.9
2018-Mar-31 08:30N 50°34' E 000°22'5 8.9
2018-Mar-31 08:00N 50°35' E 000°29'5 9.6
2018-Mar-31 07:31N 50°37' E 000°36'510.6
2018-Mar-31 07:00N 50°40' E 000°42'611.4
2018-Mar-31 06:31N 50°44' E 000°50'612.2
2018-Mar-31 06:00N 50°47' E 000°57'612.7
2018-Mar-31 05:30N 50°51' E 001°05'612.7
2018-Mar-31 05:01N 50°56' E 001°12'612.3
2018-Mar-31 04:31N 51°00' E 001°19'611.6
2018-Mar-31 04:00N 51°04' E 001°26'511.0
2018-Mar-31 03:30N 51°07' E 001°33'5 9.9
2018-Mar-31 03:01N 51°10' E 001°39'5 9.7
2018-Mar-31 02:31N 51°13' E 001°45'5 9.4
2018-Mar-31 02:00N 51°18' E 001°48'4 9.0
2018-Mar-31 01:30N 51°22' E 001°51'4 8.9
2018-Mar-31 01:00N 51°26' E 001°55'5 9.1
2018-Mar-31 00:30N 51°29' E 001°59'5 9.7
2018-Mar-31 00:00N 51°33' E 002°04'510.3
2018-Mar-30 23:30N 51°37' E 002°10'510.6
2018-Mar-30 23:00N 51°41' E 002°15'611.6
2018-Mar-30 22:28N 51°45' E 002°22'612.5
2018-Mar-30 22:00N 51°50' E 002°28'53510.4
2018-Mar-28 18:27N 60°41' E 004°20'511.9
2018-Mar-28 18:00N 60°46' E 004°26'611.0
2018-Mar-28 17:30N 60°50' E 004°33'611.8
2018-Mar-28 17:00N 60°51' E 004°45'611.1
2018-Mar-28 16:30N 60°51' E 004°56'4 8.6
2018-Mar-28 16:00N 60°49' E 005°04'0 0.4
2018-Mar-28 15:30N 60°49' E 005°04'0 0.4
2018-Mar-28 15:00N 60°49' E 005°04'0 0.3
2018-Mar-28 14:29N 60°49' E 005°05'0 0.1
2018-Mar-28 14:00N 60°49' E 005°05'1 1.9
2018-Mar-28 13:30N 60°49' E 005°03'0 0.8
2018-Mar-28 12:59N 60°49' E 005°02'0 0.0
2018-Mar-28 12:29N 60°49' E 005°02'0 0.0
2018-Mar-28 11:59N 60°49' E 005°02'0 0.0
2018-Mar-28 11:29N 60°49' E 005°02'0 0.0
2018-Mar-28 10:59N 60°49' E 005°02'0 0.0
2018-Mar-28 10:29N 60°49' E 005°02'0 0.0
2018-Mar-28 09:59N 60°49' E 005°02'0 0.0
2018-Mar-28 09:29N 60°49' E 005°02'0 0.0
2018-Mar-28 08:59N 60°49' E 005°02'0 0.0
2018-Mar-28 08:29N 60°49' E 005°02'0 0.0
2018-Mar-28 07:59N 60°49' E 005°02'0 0.0
2018-Mar-28 07:29N 60°49' E 005°02'0 0.0
2018-Mar-28 06:59N 60°49' E 005°02'0 0.0
2018-Mar-28 06:29N 60°49' E 005°02'0 0.0
2018-Mar-28 05:59N 60°49' E 005°02'0 0.0
2018-Mar-28 05:29N 60°49' E 005°02'0 0.0
2018-Mar-28 04:59N 60°49' E 005°02'0 0.0
2018-Mar-28 04:29N 60°49' E 005°02'0 0.0
2018-Mar-28 03:59N 60°49' E 005°02'0 0.0
2018-Mar-28 03:29N 60°49' E 005°02'0 0.0
2018-Mar-28 02:59N 60°49' E 005°02'0 0.0
2018-Mar-28 02:29N 60°49' E 005°02'0 0.0
2018-Mar-28 01:59N 60°49' E 005°02'0 0.0
2018-Mar-28 01:29N 60°49' E 005°02'0 0.0
2018-Mar-28 00:59N 60°49' E 005°02'0 0.0
2018-Mar-28 00:29N 60°49' E 005°02'0 0.0
2018-Mar-27 23:59N 60°49' E 005°02'0 0.0
2018-Mar-27 23:29N 60°49' E 005°02'0 0.0
2018-Mar-27 22:59N 60°49' E 005°02'0 0.0
2018-Mar-27 22:29N 60°49' E 005°02'0 0.0
2018-Mar-27 21:59N 60°49' E 005°02'0 0.0
2018-Mar-27 21:29N 60°49' E 005°02'0 0.0
2018-Mar-27 20:59N 60°49' E 005°02'0 0.0
2018-Mar-27 20:29N 60°49' E 005°02'0 0.0
2018-Mar-27 19:59N 60°49' E 005°02'0 0.0
2018-Mar-27 19:29N 60°49' E 005°02'0 0.0
2018-Mar-27 18:59N 60°49' E 005°02'0 0.0
2018-Mar-27 18:29N 60°49' E 005°02'0 0.0
2018-Mar-27 17:59N 60°49' E 005°02'0 0.0
2018-Mar-27 17:29N 60°49' E 005°02'0 0.0
2018-Mar-27 16:59N 60°49' E 005°02'0 0.0
2018-Mar-27 16:29N 60°49' E 005°02'0 0.0
2018-Mar-27 15:59N 60°49' E 005°02'0 0.0
2018-Mar-27 15:29N 60°49' E 005°02'0 0.0
2018-Mar-27 14:59N 60°49' E 005°02'0 0.0
2018-Mar-27 14:29N 60°49' E 005°02'0 0.0
2018-Mar-27 13:59N 60°49' E 005°02'0 0.0
2018-Mar-27 13:29N 60°49' E 005°02'0 0.0
2018-Mar-27 12:59N 60°49' E 005°02'0 0.0
2018-Mar-27 12:29N 60°49' E 005°02'0 0.0
2018-Mar-27 11:59N 60°49' E 005°02'0 0.0
2018-Mar-27 11:29N 60°49' E 005°02'0 0.0
2018-Mar-27 10:59N 60°49' E 005°02'0 0.0
2018-Mar-27 10:29N 60°49' E 005°02'0 0.0
2018-Mar-27 09:59N 60°49' E 005°02'0 0.0
2018-Mar-27 09:29N 60°49' E 005°02'0 0.0
2018-Mar-27 08:59N 60°49' E 005°02'0 0.0
2018-Mar-27 08:29N 60°49' E 005°02'0 0.0
2018-Mar-27 07:59N 60°49' E 005°02'0 0.0
2018-Mar-27 07:29N 60°49' E 005°02'0 0.0
2018-Mar-27 06:59N 60°49' E 005°02'0 0.0
2018-Mar-27 06:29N 60°49' E 005°02'0 0.0
2018-Mar-27 05:59N 60°49' E 005°02'0 0.0
2018-Mar-27 05:29N 60°49' E 005°02'0 0.0
2018-Mar-27 04:59N 60°49' E 005°02'0 0.0
2018-Mar-27 04:29N 60°49' E 005°02'0 0.0
2018-Mar-27 03:59N 60°49' E 005°02'0 0.0
2018-Mar-27 03:29N 60°49' E 005°02'  

Dump ship's entire track history